createdAt,value
2022-12-20T00:03:01.682Z,89.83
2022-12-20T00:08:03.826Z,89.80
2022-12-20T00:13:06.458Z,89.48
2022-12-20T00:18:08.315Z,89.89
2022-12-20T00:23:10.130Z,89.76
2022-12-20T00:28:11.637Z,89.56
2022-12-20T00:33:13.145Z,89.80
2022-12-20T00:38:15.839Z,89.76
2022-12-20T00:43:17.340Z,89.83
2022-12-20T00:48:18.903Z,89.90
2022-12-20T00:53:26.222Z,89.93
2022-12-20T00:58:29.121Z,90.13
2022-12-20T01:03:32.039Z,89.95
2022-12-20T01:08:33.781Z,89.99
2022-12-20T01:13:37.033Z,90.07
2022-12-20T01:18:40.197Z,90.11
2022-12-20T01:23:42.262Z,89.98
2022-12-20T01:28:47.296Z,90.07
2022-12-20T01:33:50.851Z,90.08
2022-12-20T01:39:00.486Z,90.03
2022-12-20T01:44:03.309Z,90.08
2022-12-20T01:49:29.296Z,90.12
2022-12-20T01:54:36.447Z,89.96
2022-12-20T01:59:41.836Z,89.95
2022-12-20T02:04:44.054Z,90.01
2022-12-20T02:09:46.359Z,90.14
2022-12-20T02:14:56.738Z,90.23
2022-12-20T02:20:32.547Z,90.27
2022-12-20T02:26:02.211Z,90.44
2022-12-20T02:31:10.316Z,90.40
2022-12-20T02:36:14.101Z,90.56
2022-12-20T02:41:23.708Z,90.50
2022-12-20T02:46:26.833Z,90.18
2022-12-20T02:51:31.701Z,90.47
2022-12-20T02:56:39.357Z,90.37
2022-12-20T03:01:51.428Z,90.36
2022-12-20T03:07:00.129Z,90.33
2022-12-20T03:12:03.259Z,90.44
2022-12-20T03:17:08.682Z,90.29
2022-12-20T03:22:12.965Z,90.24
2022-12-20T03:27:14.506Z,90.02
2022-12-20T03:32:16.423Z,90.08
2022-12-20T03:37:19.473Z,90.12
2022-12-20T03:42:21.190Z,90.22
2022-12-20T03:47:22.929Z,90.35
2022-12-20T03:52:24.954Z,90.42
2022-12-20T03:57:26.625Z,90.90
2022-12-20T04:02:30.689Z,91.11
2022-12-20T04:07:32.378Z,91.32
2022-12-20T04:12:34.026Z,91.32
2022-12-20T04:17:36.447Z,91.47
2022-12-20T04:22:38.335Z,91.78
2022-12-20T04:27:40.988Z,92.14
2022-12-20T04:32:43.099Z,92.38
2022-12-20T04:37:45.933Z,92.22
2022-12-20T04:42:48.887Z,92.33
2022-12-20T04:47:51.768Z,92.48
2022-12-20T04:53:18.224Z,92.57
2022-12-20T04:58:19.910Z,92.96
2022-12-20T05:03:24.625Z,93.35
2022-12-20T05:08:26.389Z,93.46
2022-12-20T05:13:28.647Z,93.66
2022-12-20T05:18:30.421Z,93.75
2022-12-20T05:23:55.308Z,93.96
2022-12-20T05:28:59.439Z,94.33
2022-12-20T05:34:02.359Z,94.51
2022-12-20T05:39:07.984Z,94.74
2022-12-20T05:44:13.235Z,95.32
2022-12-20T05:49:18.701Z,95.42
2022-12-20T05:54:21.344Z,95.81
2022-12-20T05:59:45.533Z,95.92
2022-12-20T06:04:51.197Z,96.28
2022-12-20T06:09:58.683Z,96.26
2022-12-20T06:15:11.819Z,96.69
2022-12-20T06:20:14.408Z,96.79
2022-12-20T06:25:20.591Z,96.93
2022-12-20T06:30:22.812Z,96.64
2022-12-20T06:35:40.586Z,96.71
2022-12-20T06:40:42.496Z,96.58
2022-12-20T06:45:44.228Z,96.31
2022-12-20T06:50:55.645Z,96.32
2022-12-20T06:55:57.869Z,96.29
2022-12-20T07:01:00.713Z,95.87
2022-12-20T07:06:02.436Z,95.53
2022-12-20T07:11:06.165Z,95.18
2022-12-20T07:16:07.975Z,94.93
2022-12-20T07:21:09.553Z,94.64
2022-12-20T07:26:11.679Z,94.36
2022-12-20T07:31:13.444Z,94.02
2022-12-20T07:36:15.968Z,93.82
2022-12-20T07:41:19.194Z,93.58
2022-12-20T07:46:21.495Z,93.71
2022-12-20T07:51:48.775Z,93.60
2022-12-20T07:56:58.697Z,93.35
2022-12-20T08:02:04.912Z,93.22
2022-12-20T08:07:07.604Z,93.24
2022-12-20T08:12:12.614Z,93.05
2022-12-20T08:17:14.490Z,93.73
2022-12-20T08:22:16.181Z,93.97
2022-12-20T08:27:17.755Z,94.28
2022-12-20T08:32:19.609Z,94.80
2022-12-20T08:37:21.257Z,95.37
2022-12-20T08:42:22.765Z,95.70
2022-12-20T08:47:24.363Z,96.03
2022-12-20T08:52:25.895Z,96.36
2022-12-20T08:57:27.520Z,96.36
2022-12-20T09:02:29.282Z,96.47
2022-12-20T09:07:30.985Z,96.47
2022-12-20T09:12:36.144Z,95.89
2022-12-20T09:17:37.801Z,95.46
2022-12-20T09:22:39.835Z,95.07
2022-12-20T09:27:41.466Z,94.48
2022-12-20T09:32:43.182Z,93.79
2022-12-20T09:37:44.853Z,93.26
2022-12-20T09:42:47.455Z,92.53
2022-12-20T09:47:49.135Z,91.94
2022-12-20T09:53:14.814Z,91.18
2022-12-20T09:58:44.555Z,90.60
2022-12-20T10:03:46.499Z,90.11
2022-12-20T10:08:48.220Z,89.83
2022-12-20T10:14:05.685Z,89.43
2022-12-20T10:19:30.417Z,89.03
2022-12-20T10:24:35.206Z,88.52
2022-12-20T10:29:36.891Z,88.02
2022-12-20T10:34:43.510Z,87.83
2022-12-20T10:39:50.360Z,87.21
2022-12-20T10:44:52.886Z,86.92
2022-12-20T10:50:08.697Z,86.64
2022-12-20T10:55:28.728Z,86.50
2022-12-20T11:00:32.304Z,86.57
2022-12-20T11:05:33.819Z,87.05
2022-12-20T11:10:36.064Z,87.61
2022-12-20T11:15:49.478Z,88.40
2022-12-20T11:21:04.278Z,89.15
2022-12-20T11:26:21.147Z,89.95
2022-12-20T11:31:41.471Z,90.61
2022-12-20T11:37:07.719Z,91.31
2022-12-20T11:42:31.821Z,91.93
2022-12-20T11:47:39.472Z,92.53
2022-12-20T11:52:48.435Z,93.02
2022-12-20T11:58:21.156Z,93.59
2022-12-20T12:03:32.803Z,93.89
2022-12-20T12:08:40.387Z,94.35
2022-12-20T12:13:43.335Z,94.66
2022-12-20T12:18:45.252Z,95.04
2022-12-20T12:24:01.757Z,95.24
2022-12-20T12:29:09.397Z,95.65
2022-12-20T12:34:31.164Z,95.91
2022-12-20T12:39:33.467Z,96.36
2022-12-20T12:44:47.171Z,96.46
2022-12-20T12:49:51.168Z,96.68
2022-12-20T12:54:52.831Z,96.70
2022-12-20T12:59:54.475Z,97.03
2022-12-20T13:04:58.868Z,97.20
2022-12-20T13:10:18.421Z,97.35
2022-12-20T13:15:19.984Z,97.51
2022-12-20T13:20:24.680Z,97.56
2022-12-20T13:25:31.002Z,97.69
2022-12-20T13:30:33.614Z,97.92
2022-12-20T13:35:53.624Z,98.05
2022-12-20T13:40:59.029Z,98.12
2022-12-20T13:46:09.914Z,98.21
2022-12-20T13:51:25.724Z,98.22
2022-12-20T13:56:27.198Z,98.57
2022-12-20T14:01:29.318Z,98.42
2022-12-20T14:06:30.981Z,98.54
2022-12-20T14:11:32.598Z,98.63
2022-12-20T14:16:34.218Z,98.90
2022-12-20T14:21:39.613Z,98.84
2022-12-20T14:26:50.979Z,98.68
2022-12-20T14:31:52.954Z,98.84
2022-12-20T14:37:27.380Z,98.83
2022-12-20T14:42:37.679Z,98.99
2022-12-20T14:47:49.791Z,99.23
2022-12-20T14:52:51.487Z,99.34
2022-12-20T14:57:56.085Z,99.11
2022-12-20T15:03:01.290Z,99.26
2022-12-20T15:08:13.478Z,99.44
2022-12-20T15:13:17.099Z,99.51
2022-12-20T15:18:20.549Z,99.39
2022-12-20T15:23:22.778Z,99.54
2022-12-20T15:28:26.010Z,99.69
2022-12-20T15:33:32.329Z,99.83
2022-12-20T15:39:03.320Z,99.72
2022-12-20T15:43:57.993Z,99.75
2022-12-20T15:48:59.640Z,99.87
2022-12-20T15:54:04.597Z,100.00
2022-12-20T15:59:32.510Z,99.87
2022-12-20T16:04:28.856Z,99.83
2022-12-20T16:09:30.430Z,100.00
2022-12-20T16:14:31.938Z,100.00
2022-12-20T16:19:33.525Z,100.00
2022-12-20T16:24:35.065Z,99.82
2022-12-20T16:29:36.573Z,100.00
2022-12-20T16:34:38.259Z,100.00
2022-12-20T16:39:40.356Z,100.00
2022-12-20T16:44:44.457Z,100.00
2022-12-20T16:49:52.288Z,100.00
2022-12-20T16:54:54.997Z,100.00
2022-12-20T16:59:56.756Z,100.00
2022-12-20T17:04:58.724Z,100.00
2022-12-20T17:10:12.279Z,100.00
2022-12-20T17:15:18.689Z,100.00
2022-12-20T17:20:22.034Z,100.00
2022-12-20T17:25:32.783Z,100.00
2022-12-20T17:30:34.331Z,100.00
2022-12-20T17:35:36.135Z,100.00
2022-12-20T17:40:37.823Z,100.00
2022-12-20T17:45:40.006Z,100.00
2022-12-20T17:50:41.548Z,100.00
2022-12-20T17:55:43.103Z,100.00
2022-12-20T18:00:44.871Z,100.00
2022-12-20T18:05:46.427Z,100.00
2022-12-20T18:10:48.072Z,100.00
2022-12-20T18:15:49.675Z,100.00
2022-12-20T18:21:00.553Z,100.00
2022-12-20T18:26:11.128Z,100.00
2022-12-20T18:31:19.207Z,100.00
2022-12-20T18:36:24.055Z,100.00
2022-12-20T18:41:28.602Z,100.00
2022-12-20T18:46:30.639Z,100.00
2022-12-20T18:51:36.673Z,100.00
2022-12-20T18:56:39.265Z,100.00
2022-12-20T19:01:42.081Z,100.00
2022-12-20T19:06:43.894Z,100.00
2022-12-20T19:11:45.531Z,100.00
2022-12-20T19:16:49.743Z,100.00
2022-12-20T19:21:51.330Z,100.00
2022-12-20T19:26:52.848Z,100.00
2022-12-20T19:31:55.361Z,100.00
2022-12-20T19:36:57.020Z,100.00
2022-12-20T19:42:22.960Z,100.00
2022-12-20T19:47:21.539Z,100.00
2022-12-20T19:52:28.288Z,100.00
2022-12-20T19:57:30.282Z,100.00
2022-12-20T20:02:31.904Z,100.00
2022-12-20T20:07:33.522Z,100.00
2022-12-20T20:12:38.137Z,100.00
2022-12-20T20:17:39.845Z,100.00
2022-12-20T20:22:41.389Z,100.00
2022-12-20T20:27:42.880Z,100.00
2022-12-20T20:32:44.430Z,100.00
2022-12-20T20:37:46.486Z,100.00
2022-12-20T20:42:48.042Z,100.00
2022-12-20T20:47:49.694Z,100.00
2022-12-20T20:52:51.171Z,100.00
2022-12-20T20:57:52.693Z,100.00
2022-12-20T21:02:54.406Z,100.00
2022-12-20T21:07:56.107Z,100.00
2022-12-20T21:12:57.651Z,100.00
2022-12-20T21:17:59.327Z,100.00
2022-12-20T21:23:01.412Z,100.00
2022-12-20T21:28:03.397Z,100.00
2022-12-20T21:33:04.922Z,100.00
2022-12-20T21:38:06.856Z,100.00
2022-12-20T21:43:08.399Z,100.00
2022-12-20T21:48:09.925Z,100.00
2022-12-20T21:53:17.457Z,100.00
2022-12-20T21:58:20.862Z,100.00
2022-12-20T22:03:23.896Z,100.00
2022-12-20T22:08:26.854Z,100.00
2022-12-20T22:13:32.065Z,100.00
2022-12-20T22:18:37.443Z,100.00
2022-12-20T22:23:39.692Z,100.00
2022-12-20T22:28:52.393Z,100.00
2022-12-20T22:33:55.559Z,100.00
2022-12-20T22:38:57.866Z,100.00
2022-12-20T22:43:59.629Z,100.00
2022-12-20T22:49:01.471Z,100.00
2022-12-20T22:54:03.203Z,100.00
2022-12-20T22:59:05.041Z,100.00
2022-12-20T23:04:08.844Z,100.00
2022-12-20T23:09:10.395Z,100.00
2022-12-20T23:14:39.161Z,100.00
2022-12-20T23:19:59.197Z,100.00
2022-12-20T23:25:01.477Z,100.00
2022-12-20T23:30:05.467Z,100.00
2022-12-20T23:35:12.441Z,100.00
2022-12-20T23:40:16.462Z,100.00
2022-12-20T23:45:18.025Z,100.00
2022-12-20T23:50:19.548Z,100.00
2022-12-20T23:55:21.031Z,100.00
